createdAt,value
2023-10-29T00:02:14.329Z,10.70
2023-10-29T00:04:41.546Z,12.70
2023-10-29T00:07:08.452Z,13.07
2023-10-29T00:09:36.267Z,11.45
2023-10-29T00:12:03.307Z,12.45
2023-10-29T00:14:31.720Z,11.98
2023-10-29T00:16:59.305Z,12.25
2023-10-29T00:19:26.292Z,14.20
2023-10-29T00:21:53.162Z,12.80
2023-10-29T00:24:20.158Z,15.32
2023-10-29T00:28:03.487Z,14.30
2023-10-29T00:30:30.516Z,12.75
2023-10-29T00:32:57.846Z,13.43
2023-10-29T00:35:24.697Z,15.50
2023-10-29T00:37:51.802Z,10.68
2023-10-29T00:40:18.720Z,12.90
2023-10-29T00:42:45.649Z,11.00
2023-10-29T00:45:12.737Z,13.25
2023-10-29T00:47:40.072Z,16.38
2023-10-29T00:50:07.544Z,15.35
2023-10-29T00:52:36.089Z,11.32
2023-10-29T00:55:04.629Z,12.75
2023-10-29T00:57:32.129Z,11.88
2023-10-29T00:59:59.211Z,12.30
2023-10-29T01:02:26.456Z,16.45
2023-10-29T01:04:53.546Z,11.45
2023-10-29T01:07:20.586Z,13.73
2023-10-29T01:09:47.484Z,13.82
2023-10-29T01:12:20.386Z,14.05
2023-10-29T01:14:47.642Z,11.75
2023-10-29T01:17:15.147Z,14.90
2023-10-29T01:19:42.003Z,17.20
2023-10-29T01:22:08.932Z,11.48
2023-10-29T01:24:35.852Z,17.33
2023-10-29T01:27:04.561Z,11.95
2023-10-29T01:29:31.853Z,14.48
2023-10-29T01:31:58.784Z,13.48
2023-10-29T01:34:25.756Z,12.20
2023-10-29T01:36:52.798Z,13.85
2023-10-29T01:39:19.720Z,15.63
2023-10-29T01:41:46.652Z,14.02
2023-10-29T01:44:13.723Z,11.65
2023-10-29T01:46:40.597Z,14.40
2023-10-29T01:49:10.580Z,14.93
2023-10-29T01:51:37.634Z,14.38
2023-10-29T01:54:05.265Z,14.07
2023-10-29T01:56:32.979Z,14.57
2023-10-29T01:59:00.049Z,12.07
2023-10-29T02:01:27.267Z,11.80
2023-10-29T02:03:55.098Z,12.73
2023-10-29T02:06:22.088Z,13.48
2023-10-29T02:08:49.223Z,13.55
2023-10-29T02:11:16.184Z,17.30
2023-10-29T02:13:45.436Z,14.27
2023-10-29T02:16:12.477Z,13.73
2023-10-29T02:18:40.107Z,12.38
2023-10-29T02:21:27.104Z,12.52
2023-10-29T02:23:56.199Z,13.02
2023-10-29T02:26:24.441Z,13.48
2023-10-29T02:28:51.316Z,18.10
2023-10-29T02:31:19.359Z,12.27
2023-10-29T02:33:47.567Z,11.88
2023-10-29T02:36:17.409Z,16.80
2023-10-29T02:38:44.541Z,20.05
2023-10-29T02:41:14.303Z,13.27
2023-10-29T02:43:41.680Z,15.93
2023-10-29T02:46:08.803Z,13.50
2023-10-29T02:48:35.838Z,11.02
2023-10-29T02:51:02.933Z,11.50
2023-10-29T02:53:30.182Z,11.35
2023-10-29T02:56:03.569Z,12.90
2023-10-29T02:58:30.394Z,13.88
2023-10-29T03:01:10.694Z,15.43
2023-10-29T03:03:38.768Z,11.30
2023-10-29T03:06:10.207Z,16.05
2023-10-29T03:08:37.805Z,12.82
2023-10-29T03:11:05.389Z,15.57
2023-10-29T03:13:32.503Z,14.68
2023-10-29T03:15:59.597Z,13.98
2023-10-29T03:18:26.705Z,11.43
2023-10-29T03:20:55.334Z,11.20
2023-10-29T03:23:22.809Z,10.35
2023-10-29T03:25:49.786Z,13.57
2023-10-29T03:28:17.745Z,12.48
2023-10-29T03:30:44.653Z,14.35
2023-10-29T03:33:11.881Z,12.77
2023-10-29T03:35:38.852Z,14.13
2023-10-29T03:38:05.810Z,9.18
2023-10-29T03:40:32.658Z,13.43
2023-10-29T03:42:59.465Z,13.77
2023-10-29T03:45:26.327Z,12.05
2023-10-29T03:47:53.321Z,12.07
2023-10-29T03:50:20.269Z,13.40
2023-10-29T03:52:47.127Z,11.75
2023-10-29T03:55:14.000Z,11.07
2023-10-29T03:57:41.174Z,10.70
2023-10-29T04:00:08.781Z,9.85
2023-10-29T04:02:41.744Z,11.50
2023-10-29T04:05:10.329Z,9.38
2023-10-29T04:07:38.122Z,10.85
2023-10-29T04:10:05.511Z,10.80
2023-10-29T04:12:33.633Z,13.55
2023-10-29T04:15:00.960Z,12.80
2023-10-29T04:17:31.745Z,13.27
2023-10-29T04:19:59.308Z,11.63
2023-10-29T04:22:26.252Z,15.80
2023-10-29T04:24:53.411Z,10.43
2023-10-29T04:27:20.613Z,9.82
2023-10-29T04:29:47.656Z,10.88
2023-10-29T04:32:14.578Z,12.82
2023-10-29T04:34:41.426Z,12.25
2023-10-29T04:37:08.214Z,12.85
2023-10-29T04:39:35.090Z,15.13
2023-10-29T04:42:02.713Z,12.13
2023-10-29T04:44:29.916Z,13.48
2023-10-29T04:46:56.925Z,13.00
2023-10-29T04:49:23.846Z,11.05
2023-10-29T04:51:50.734Z,15.10
2023-10-29T04:54:17.760Z,13.48
2023-10-29T04:56:44.704Z,13.93
2023-10-29T04:59:11.629Z,12.23
2023-10-29T05:01:38.547Z,14.73
2023-10-29T05:04:05.900Z,12.55
2023-10-29T05:06:32.931Z,13.52
2023-10-29T05:08:59.857Z,13.13
2023-10-29T05:11:26.857Z,11.80
2023-10-29T05:13:53.955Z,12.65
2023-10-29T05:16:21.847Z,15.23
2023-10-29T05:18:49.231Z,11.57
2023-10-29T05:21:16.347Z,12.23
2023-10-29T05:23:43.293Z,15.13
2023-10-29T05:26:10.169Z,16.85
2023-10-29T05:28:37.024Z,13.05
2023-10-29T05:31:04.177Z,15.32
2023-10-29T05:33:32.132Z,15.80
2023-10-29T05:35:59.524Z,15.68
2023-10-29T05:38:26.518Z,16.98
2023-10-29T05:40:53.411Z,14.63
2023-10-29T05:43:20.186Z,17.98
2023-10-29T05:45:47.279Z,17.95
2023-10-29T05:48:14.511Z,14.70
2023-10-29T05:50:41.564Z,16.08
2023-10-29T05:53:08.442Z,15.25
2023-10-29T05:55:36.264Z,15.27
2023-10-29T05:58:04.148Z,19.73
2023-10-29T06:00:30.977Z,16.05
2023-10-29T06:02:57.939Z,16.23
2023-10-29T06:05:24.943Z,13.52
2023-10-29T06:07:51.839Z,15.07
2023-10-29T06:10:18.765Z,14.65
2023-10-29T06:12:45.903Z,14.35
2023-10-29T06:15:13.427Z,14.20
2023-10-29T06:17:42.984Z,15.38
2023-10-29T06:20:12.051Z,13.38
2023-10-29T06:22:39.023Z,13.20
2023-10-29T06:25:06.507Z,13.77
2023-10-29T06:27:33.568Z,11.98
2023-10-29T06:30:01.333Z,17.02
2023-10-29T06:32:31.971Z,15.50
2023-10-29T06:34:58.859Z,13.35
2023-10-29T06:37:25.822Z,13.90
2023-10-29T06:39:53.528Z,12.23
2023-10-29T06:42:20.420Z,16.63
2023-10-29T06:44:47.612Z,14.70
2023-10-29T06:47:15.810Z,14.73
2023-10-29T06:49:43.300Z,15.23
2023-10-29T06:52:11.214Z,14.05
2023-10-29T06:54:38.107Z,15.57
2023-10-29T06:57:06.511Z,17.13
2023-10-29T06:59:34.683Z,14.48
2023-10-29T07:02:02.088Z,13.25
2023-10-29T07:04:29.195Z,15.00
2023-10-29T07:06:56.342Z,14.75
2023-10-29T07:09:23.325Z,12.05
2023-10-29T07:11:50.927Z,16.13
2023-10-29T07:14:17.917Z,13.02
2023-10-29T07:16:48.988Z,12.48
2023-10-29T07:19:18.112Z,15.00
2023-10-29T07:21:45.365Z,14.43
2023-10-29T07:24:12.568Z,14.65
2023-10-29T07:26:39.506Z,15.02
2023-10-29T07:29:07.689Z,17.52
2023-10-29T07:31:34.642Z,14.13
2023-10-29T07:34:01.748Z,16.83
2023-10-29T07:36:30.178Z,13.15
2023-10-29T07:38:58.205Z,15.07
2023-10-29T07:41:25.248Z,14.32
2023-10-29T07:43:52.172Z,15.02
2023-10-29T07:46:19.098Z,15.05
2023-10-29T07:48:45.937Z,13.25
2023-10-29T07:51:12.817Z,12.48
2023-10-29T07:53:39.804Z,16.77
2023-10-29T07:56:10.952Z,15.50
2023-10-29T07:58:40.456Z,12.55
2023-10-29T08:01:15.248Z,11.85
2023-10-29T08:03:43.422Z,13.90
2023-10-29T08:06:11.385Z,10.70
2023-10-29T08:08:38.925Z,11.30
2023-10-29T08:11:05.960Z,13.93
2023-10-29T08:13:32.928Z,15.13
2023-10-29T08:16:00.394Z,12.68
2023-10-29T08:18:27.457Z,8.30
2023-10-29T08:20:54.419Z,14.18
2023-10-29T08:23:21.910Z,9.68
2023-10-29T08:25:49.111Z,6.93
2023-10-29T08:28:15.972Z,11.40
2023-10-29T08:30:43.127Z,14.88
2023-10-29T08:33:10.066Z,10.25
2023-10-29T08:35:37.137Z,12.35
2023-10-29T08:38:04.647Z,10.45
2023-10-29T08:40:31.523Z,9.35
2023-10-29T08:42:58.387Z,7.88
2023-10-29T08:45:41.048Z,9.85
2023-10-29T08:48:11.412Z,8.70
2023-10-29T08:50:38.692Z,6.18
2023-10-29T08:53:05.587Z,12.40
2023-10-29T08:55:34.694Z,7.00
2023-10-29T08:58:01.590Z,9.93
2023-10-29T09:00:38.162Z,7.03
2023-10-29T09:03:09.579Z,8.77
2023-10-29T09:05:37.145Z,8.68
2023-10-29T09:08:04.113Z,6.13
2023-10-29T09:10:31.101Z,6.43
2023-10-29T09:13:01.252Z,7.20
2023-10-29T09:15:29.555Z,10.75
2023-10-29T09:17:56.514Z,6.90
2023-10-29T09:20:25.829Z,11.60
2023-10-29T09:22:53.932Z,7.15
2023-10-29T09:25:22.301Z,9.18
2023-10-29T09:27:52.855Z,7.38
2023-10-29T09:30:19.724Z,7.65
2023-10-29T09:32:47.452Z,8.05
2023-10-29T09:35:14.403Z,13.80
2023-10-29T09:37:41.396Z,8.20
2023-10-29T09:40:10.548Z,7.15
2023-10-29T09:42:45.201Z,11.13
2023-10-29T09:45:13.692Z,9.13
2023-10-29T09:47:41.105Z,8.73
2023-10-29T09:50:09.666Z,11.45
2023-10-29T09:52:37.408Z,6.55
2023-10-29T09:55:06.102Z,6.40
2023-10-29T09:57:33.006Z,10.00
2023-10-29T10:00:01.390Z,5.28
2023-10-29T10:02:30.632Z,6.75
2023-10-29T10:04:58.090Z,7.95
2023-10-29T10:07:26.368Z,8.52
2023-10-29T10:09:57.225Z,9.50
2023-10-29T10:12:26.267Z,9.27
2023-10-29T10:14:54.293Z,4.72
2023-10-29T10:17:22.187Z,5.35
2023-10-29T10:19:51.162Z,8.50
2023-10-29T10:22:37.003Z,7.45
2023-10-29T10:25:04.634Z,8.00
2023-10-29T10:27:31.617Z,6.82
2023-10-29T10:29:58.504Z,10.07
2023-10-29T10:32:25.536Z,8.70
2023-10-29T10:34:53.170Z,4.40
2023-10-29T10:37:20.664Z,6.15
2023-10-29T10:39:47.577Z,8.95
2023-10-29T10:42:26.293Z,8.32
2023-10-29T10:44:56.069Z,7.30
2023-10-29T10:47:23.064Z,8.85
2023-10-29T10:49:51.106Z,12.38
2023-10-29T10:52:19.259Z,5.97
2023-10-29T10:54:47.125Z,4.93
2023-10-29T10:57:15.495Z,7.28
2023-10-29T10:59:43.523Z,6.72
2023-10-29T11:02:14.103Z,6.93
2023-10-29T11:04:42.297Z,7.15
2023-10-29T11:07:09.368Z,7.57
2023-10-29T11:09:36.771Z,11.82
2023-10-29T11:12:06.004Z,11.80
2023-10-29T11:14:32.874Z,10.50
2023-10-29T11:17:01.002Z,7.35
2023-10-29T11:19:45.377Z,8.52
2023-10-29T11:22:18.213Z,7.32
2023-10-29T11:25:05.957Z,12.77
2023-10-29T11:27:45.523Z,19.00
2023-10-29T11:30:16.602Z,12.90
2023-10-29T11:32:45.256Z,19.85
2023-10-29T11:35:20.706Z,8.90
2023-10-29T11:37:51.792Z,7.82
2023-10-29T11:40:31.730Z,5.60
2023-10-29T11:43:15.938Z,8.68
2023-10-29T11:45:52.269Z,6.57
2023-10-29T11:48:21.489Z,10.93
2023-10-29T11:51:09.767Z,7.35
2023-10-29T11:53:40.490Z,12.00
2023-10-29T11:56:11.260Z,9.32
2023-10-29T11:58:38.652Z,5.60
2023-10-29T12:01:05.996Z,5.90
2023-10-29T12:03:33.690Z,5.90
2023-10-29T12:06:00.910Z,5.75
2023-10-29T12:08:28.739Z,5.07
2023-10-29T12:10:56.898Z,6.60
2023-10-29T12:13:24.243Z,7.47
2023-10-29T12:16:04.707Z,8.65
2023-10-29T12:18:31.636Z,7.50
2023-10-29T12:21:06.313Z,4.38
2023-10-29T12:23:34.054Z,4.82
2023-10-29T12:26:05.389Z,8.70
2023-10-29T12:28:34.503Z,5.05
2023-10-29T12:31:01.872Z,7.88
2023-10-29T12:33:30.841Z,6.03
2023-10-29T12:36:03.979Z,7.10
2023-10-29T12:38:31.179Z,4.20
2023-10-29T12:41:09.577Z,5.05
2023-10-29T12:44:03.138Z,3.83
2023-10-29T12:46:30.046Z,4.93
2023-10-29T12:49:03.080Z,5.80
2023-10-29T12:54:17.539Z,5.38
2023-10-29T12:56:52.104Z,5.63
2023-10-29T12:59:22.742Z,5.32
2023-10-29T13:01:57.140Z,5.45
2023-10-29T13:04:24.946Z,4.28
2023-10-29T13:06:56.651Z,6.53
2023-10-29T13:09:29.568Z,4.95
2023-10-29T13:14:24.468Z,1.95
2023-10-29T13:16:55.417Z,6.43
2023-10-29T13:19:25.408Z,4.35
2023-10-29T13:21:53.625Z,8.45
2023-10-29T13:24:21.705Z,3.58
2023-10-29T13:26:50.330Z,2.80
2023-10-29T13:29:17.529Z,3.75
2023-10-29T13:31:44.427Z,4.15
2023-10-29T13:34:11.736Z,5.43
2023-10-29T13:36:38.874Z,5.45
2023-10-29T13:39:08.784Z,7.93
2023-10-29T13:41:36.611Z,5.45
2023-10-29T13:44:03.761Z,5.85
2023-10-29T13:46:32.171Z,5.00
2023-10-29T13:49:01.043Z,6.47
2023-10-29T13:51:28.365Z,6.53
2023-10-29T13:53:55.413Z,5.47
2023-10-29T13:56:25.329Z,5.45
2023-10-29T13:58:52.364Z,5.20
2023-10-29T14:01:20.501Z,3.35
2023-10-29T14:03:49.905Z,6.90
2023-10-29T14:06:18.191Z,5.45
2023-10-29T14:08:45.633Z,5.85
2023-10-29T14:11:15.015Z,5.05
2023-10-29T14:13:43.575Z,4.47
2023-10-29T14:16:12.765Z,3.85
2023-10-29T14:18:40.186Z,3.90
2023-10-29T14:21:07.408Z,6.50
2023-10-29T14:23:34.749Z,5.40
2023-10-29T14:26:02.822Z,4.57
2023-10-29T14:28:30.148Z,3.83
2023-10-29T14:30:57.231Z,3.58
2023-10-29T14:33:24.516Z,7.35
2023-10-29T14:35:59.018Z,3.67
2023-10-29T14:38:27.367Z,2.92
2023-10-29T14:40:54.943Z,3.50
2023-10-29T14:43:25.326Z,2.88
2023-10-29T14:46:03.169Z,4.80
2023-10-29T14:48:30.490Z,3.75
2023-10-29T14:50:58.984Z,3.65
2023-10-29T14:53:25.936Z,3.60
2023-10-29T14:55:52.812Z,2.42
2023-10-29T14:58:19.851Z,4.57
2023-10-29T15:00:47.047Z,2.50
2023-10-29T15:03:14.821Z,10.20
2023-10-29T15:05:42.358Z,1.85
2023-10-29T15:08:09.376Z,4.10
2023-10-29T15:10:36.417Z,2.97
2023-10-29T15:13:03.627Z,3.28
2023-10-29T15:15:32.795Z,4.72
2023-10-29T15:18:00.235Z,3.92
2023-10-29T15:20:28.276Z,5.35
2023-10-29T15:22:55.713Z,5.57
2023-10-29T15:25:22.660Z,3.42
2023-10-29T15:27:49.499Z,4.45
2023-10-29T15:30:16.440Z,4.68
2023-10-29T15:32:43.376Z,3.53
2023-10-29T15:35:10.667Z,4.05
2023-10-29T15:37:39.586Z,4.20
2023-10-29T15:40:07.858Z,2.97
2023-10-29T15:42:34.997Z,5.18
2023-10-29T15:45:01.976Z,6.47
2023-10-29T15:47:31.635Z,4.20
2023-10-29T15:49:59.027Z,6.47
2023-10-29T15:52:26.021Z,4.70
2023-10-29T15:54:52.855Z,5.00
2023-10-29T15:57:19.764Z,2.60
2023-10-29T15:59:46.650Z,3.47
2023-10-29T16:02:13.585Z,4.07
2023-10-29T16:04:40.624Z,3.83
2023-10-29T16:07:09.498Z,4.10
2023-10-29T16:09:36.759Z,4.68
2023-10-29T16:12:08.790Z,5.63
2023-10-29T16:14:36.498Z,7.25
2023-10-29T16:17:04.394Z,4.38
2023-10-29T16:19:31.734Z,2.60
2023-10-29T16:21:58.793Z,6.20
2023-10-29T16:24:28.094Z,4.72
2023-10-29T16:26:55.351Z,3.72
2023-10-29T16:29:22.881Z,3.85
2023-10-29T16:31:49.700Z,2.83
2023-10-29T16:34:16.739Z,4.45
2023-10-29T16:36:43.803Z,6.07
2023-10-29T16:39:11.244Z,5.20
2023-10-29T16:41:38.116Z,2.70
2023-10-29T16:44:05.227Z,6.63
2023-10-29T16:46:33.104Z,4.97
2023-10-29T16:49:02.514Z,4.30
2023-10-29T16:51:30.101Z,5.80
2023-10-29T16:53:57.144Z,4.13
2023-10-29T16:56:24.116Z,3.75
2023-10-29T16:58:51.119Z,8.05
2023-10-29T17:01:19.031Z,3.53
2023-10-29T17:03:46.719Z,4.40
2023-10-29T17:06:15.051Z,4.55
2023-10-29T17:08:41.985Z,7.20
2023-10-29T17:11:08.859Z,4.00
2023-10-29T17:13:35.723Z,3.63
2023-10-29T17:16:05.380Z,3.60
2023-10-29T17:18:33.333Z,3.33
2023-10-29T17:21:01.085Z,6.15
2023-10-29T17:23:28.301Z,2.85
2023-10-29T17:25:56.184Z,3.13
2023-10-29T17:28:23.377Z,3.40
2023-10-29T17:30:51.222Z,7.53
2023-10-29T17:33:18.229Z,5.90
2023-10-29T17:35:46.659Z,6.57
2023-10-29T17:38:13.589Z,6.80
2023-10-29T17:40:40.554Z,4.80
2023-10-29T17:43:07.689Z,2.60
2023-10-29T17:45:39.162Z,3.05
2023-10-29T17:48:06.527Z,2.17
2023-10-29T17:50:33.708Z,3.65
2023-10-29T17:53:03.740Z,5.30
2023-10-29T17:55:30.978Z,3.97
2023-10-29T17:58:00.698Z,5.43
2023-10-29T18:00:27.776Z,4.18
2023-10-29T18:02:54.752Z,5.30
2023-10-29T18:05:22.708Z,4.57
2023-10-29T18:07:50.559Z,3.47
2023-10-29T18:10:17.507Z,2.92
2023-10-29T18:12:46.065Z,4.68
2023-10-29T18:15:13.165Z,7.78
2023-10-29T18:17:40.202Z,7.55
2023-10-29T18:20:08.004Z,5.65
2023-10-29T18:22:34.923Z,3.95
2023-10-29T18:25:01.729Z,5.25
2023-10-29T18:27:31.292Z,11.60
2023-10-29T18:29:59.419Z,8.30
2023-10-29T18:32:26.443Z,8.60
2023-10-29T18:34:53.318Z,4.45
2023-10-29T18:37:20.388Z,11.13
2023-10-29T18:39:47.592Z,7.78
2023-10-29T18:42:14.763Z,9.73
2023-10-29T18:44:41.858Z,12.68
2023-10-29T18:47:11.941Z,11.45
2023-10-29T18:49:38.848Z,11.98
2023-10-29T18:52:06.410Z,9.48
2023-10-29T18:54:34.326Z,9.88
2023-10-29T18:57:01.346Z,10.55
2023-10-29T18:59:28.571Z,10.90
2023-10-29T19:01:55.686Z,9.35
2023-10-29T19:04:23.278Z,8.35
2023-10-29T19:06:50.198Z,7.82
2023-10-29T19:09:17.030Z,9.25
2023-10-29T19:11:44.074Z,11.07
2023-10-29T19:14:10.991Z,9.43
2023-10-29T19:16:37.934Z,10.73
2023-10-29T19:19:05.249Z,8.68
2023-10-29T19:21:32.233Z,11.75
2023-10-29T19:23:59.274Z,11.98
2023-10-29T19:26:26.261Z,27.10
2023-10-29T19:28:53.119Z,11.88
2023-10-29T19:31:26.958Z,11.68
2023-10-29T19:33:55.667Z,12.05
2023-10-29T19:36:23.105Z,9.50
2023-10-29T19:38:51.341Z,10.95
2023-10-29T19:41:18.628Z,10.82
2023-10-29T19:43:45.738Z,8.02
2023-10-29T19:46:12.674Z,8.15
2023-10-29T19:48:41.007Z,9.20
2023-10-29T19:51:09.264Z,13.05
2023-10-29T19:53:37.481Z,11.10
2023-10-29T19:56:08.329Z,9.75
2023-10-29T19:58:35.633Z,10.80
2023-10-29T20:01:07.082Z,9.65
2023-10-29T20:03:34.614Z,10.98
2023-10-29T20:06:13.066Z,14.52
2023-10-29T20:08:41.582Z,7.43
2023-10-29T20:11:11.756Z,11.02
2023-10-29T20:13:40.203Z,10.70
2023-10-29T20:16:10.547Z,8.18
2023-10-29T20:18:38.429Z,9.95
2023-10-29T20:21:10.666Z,9.60
2023-10-29T20:23:37.890Z,8.23
2023-10-29T20:26:15.083Z,9.88
2023-10-29T20:28:42.407Z,9.00
2023-10-29T20:31:09.476Z,11.88
2023-10-29T20:33:36.506Z,9.82
2023-10-29T20:36:04.186Z,14.98
2023-10-29T20:38:31.525Z,12.65
2023-10-29T20:40:58.647Z,10.98
2023-10-29T20:43:25.586Z,10.48
2023-10-29T20:45:54.136Z,11.23
2023-10-29T20:48:22.748Z,8.85
2023-10-29T20:50:54.797Z,11.70
2023-10-29T20:53:24.726Z,10.97
2023-10-29T20:55:52.400Z,15.05
2023-10-29T20:58:19.207Z,10.45
2023-10-29T21:00:51.050Z,9.02
2023-10-29T21:03:18.786Z,8.98
2023-10-29T21:05:47.094Z,11.00
2023-10-29T21:08:15.100Z,12.77
2023-10-29T21:10:42.148Z,9.75
2023-10-29T21:13:09.106Z,13.45
2023-10-29T21:15:40.287Z,14.10
2023-10-29T21:18:07.467Z,11.38
2023-10-29T21:20:34.441Z,11.45
2023-10-29T21:23:01.369Z,9.75
2023-10-29T21:25:28.366Z,10.77
2023-10-29T21:27:55.420Z,16.08
2023-10-29T21:30:22.394Z,10.85
2023-10-29T21:32:49.269Z,12.10
2023-10-29T21:35:16.284Z,10.75
2023-10-29T21:37:43.173Z,13.90
2023-10-29T21:40:10.659Z,10.80
2023-10-29T21:42:38.311Z,12.80
2023-10-29T21:45:06.135Z,9.85
2023-10-29T21:47:33.025Z,10.23
2023-10-29T21:49:59.947Z,10.35
2023-10-29T21:52:27.179Z,12.88
2023-10-29T21:54:54.083Z,9.05
2023-10-29T21:57:20.983Z,14.65
2023-10-29T21:59:49.702Z,9.68
2023-10-29T22:02:16.723Z,8.55
2023-10-29T22:04:43.566Z,9.95
2023-10-29T22:07:10.396Z,10.93
2023-10-29T22:09:37.413Z,10.82
2023-10-29T22:12:04.587Z,11.25
2023-10-29T22:14:31.490Z,10.02
2023-10-29T22:16:58.431Z,12.13
2023-10-29T22:19:25.605Z,12.95
2023-10-29T22:21:52.430Z,14.55
2023-10-29T22:24:19.341Z,11.95
2023-10-29T22:26:46.164Z,9.65
2023-10-29T22:29:13.087Z,12.18
2023-10-29T22:31:40.136Z,12.70
2023-10-29T22:34:07.041Z,10.75
2023-10-29T22:36:33.937Z,10.55
2023-10-29T22:39:00.825Z,10.45
2023-10-29T22:41:27.719Z,10.50
2023-10-29T22:43:54.807Z,19.92
2023-10-29T22:46:23.553Z,8.15
2023-10-29T22:48:51.428Z,9.48
2023-10-29T22:51:19.608Z,8.82
2023-10-29T22:53:47.146Z,13.68
2023-10-29T22:56:14.290Z,9.77
2023-10-29T22:58:41.452Z,10.73
2023-10-29T23:01:11.436Z,11.82
2023-10-29T23:03:38.432Z,15.80
2023-10-29T23:06:06.545Z,7.25
2023-10-29T23:08:34.573Z,11.27
2023-10-29T23:11:02.077Z,8.30
2023-10-29T23:13:29.045Z,9.82
2023-10-29T23:15:56.842Z,8.93
2023-10-29T23:18:25.606Z,9.88
2023-10-29T23:20:53.481Z,10.43
2023-10-29T23:23:20.574Z,10.68
2023-10-29T23:25:48.133Z,8.85
2023-10-29T23:28:26.877Z,9.35
2023-10-29T23:31:02.075Z,9.50
2023-10-29T23:33:29.523Z,11.57
2023-10-29T23:35:56.555Z,9.02
2023-10-29T23:38:23.363Z,6.25
2023-10-29T23:40:50.142Z,8.07
2023-10-29T23:43:17.069Z,8.75
2023-10-29T23:45:43.973Z,8.18
2023-10-29T23:48:12.282Z,8.20
2023-10-29T23:50:39.397Z,9.02
2023-10-29T23:53:07.468Z,8.00
2023-10-29T23:55:34.572Z,7.93
2023-10-29T23:58:01.450Z,7.75
